KFRI/FRI METAR and TAF weather

Enter ICAO airport designator
Station Type Date Time Source
KFRI METAR 2024/05/28 20:55 UTC NOAA

KFRI 282055Z 22003KT 10SM CLR 28/09 A3012 RMK AO2A SLP192 T02800088 57012 PNO $


Station Type Date Time Source
KFRI Decoded METAR 2024/05/28 20:55 UTC NOAA

Fort Riley, Marshall AAF Ft Riley, KS, United States (KFRI) 39-03-20N 096-45-51W
May 28, 2024 - 04:55 PM EDT / 2024.05.28 2055 UTC
Wind: from the SW (220 degrees) at 3 MPH (3 KT):0
Visibility: 10 mile(s):0
Sky conditions: clear
Temperature: 82.4 F (28.0 C)
Dew Point: 47.8 F (8.8 C)
Relative Humidity: 29%
Pressure (altimeter): 30.12 in. Hg (1019 hPa)
Pressure tendency: 0.04 inches (1.2 hPa) lower than three hours ago
ob: KFRI 282055Z 22003KT 10SM CLR 28/09 A3012 RMK AO2A SLP192 T02800088 57012 PNO
cycle: 21

Station Type Date Time Source
KFRI TAF 2024/05/28 20:03 UTC NOAA